sensor_id;sensor_type;location;lat;lon;timestamp;P1;durP1;ratioP1;P2;durP2;ratioP2
47715;SDS011;33476;50.984;3.538;2023-01-04T00:02:16;4.88;;;0.60;;
47715;SDS011;33476;50.984;3.538;2023-01-04T00:04:41;2.38;;;0.30;;
47715;SDS011;33476;50.984;3.538;2023-01-04T00:07:07;2.70;;;0.30;;
47715;SDS011;33476;50.984;3.538;2023-01-04T00:09:32;2.47;;;0.25;;
47715;SDS011;33476;50.984;3.538;2023-01-04T00:11:57;2.13;;;0.40;;
47715;SDS011;33476;50.984;3.538;2023-01-04T00:14:23;3.00;;;0.40;;
47715;SDS011;33476;50.984;3.538;2023-01-04T00:16:48;4.13;;;0.43;;
47715;SDS011;33476;50.984;3.538;2023-01-04T00:19:13;2.08;;;0.30;;
47715;SDS011;33476;50.984;3.538;2023-01-04T00:21:38;1.10;;;0.20;;
47715;SDS011;33476;50.984;3.538;2023-01-04T00:24:04;0.80;;;0.20;;
47715;SDS011;33476;50.984;3.538;2023-01-04T00:26:30;1.90;;;0.30;;
47715;SDS011;33476;50.984;3.538;2023-01-04T00:28:58;3.65;;;0.47;;
47715;SDS011;33476;50.984;3.538;2023-01-04T00:31:25;2.28;;;0.30;;
47715;SDS011;33476;50.984;3.538;2023-01-04T00:33:54;1.65;;;0.28;;
47715;SDS011;33476;50.984;3.538;2023-01-04T00:36:21;1.65;;;0.20;;
47715;SDS011;33476;50.984;3.538;2023-01-04T00:38:47;1.80;;;0.40;;
47715;SDS011;33476;50.984;3.538;2023-01-04T00:41:30;4.35;;;0.35;;
47715;SDS011;33476;50.984;3.538;2023-01-04T00:44:04;2.75;;;0.20;;
47715;SDS011;33476;50.984;3.538;2023-01-04T00:46:31;2.08;;;0.30;;
47715;SDS011;33476;50.984;3.538;2023-01-04T00:48:56;2.95;;;0.35;;
47715;SDS011;33476;50.984;3.538;2023-01-04T00:51:22;1.88;;;0.22;;
47715;SDS011;33476;50.984;3.538;2023-01-04T00:53:48;4.45;;;0.20;;
47715;SDS011;33476;50.984;3.538;2023-01-04T00:56:13;2.45;;;0.30;;
47715;SDS011;33476;50.984;3.538;2023-01-04T00:58:38;1.42;;;0.20;;
47715;SDS011;33476;50.984;3.538;2023-01-04T01:01:04;2.45;;;0.20;;
47715;SDS011;33476;50.984;3.538;2023-01-04T01:03:31;5.38;;;0.55;;
47715;SDS011;33476;50.984;3.538;2023-01-04T01:06:01;2.70;;;0.25;;
47715;SDS011;33476;50.984;3.538;2023-01-04T01:08:27;3.42;;;0.30;;
47715;SDS011;33476;50.984;3.538;2023-01-04T01:10:53;1.15;;;0.20;;
47715;SDS011;33476;50.984;3.538;2023-01-04T01:13:19;1.88;;;0.30;;
47715;SDS011;33476;50.984;3.538;2023-01-04T01:15:46;3.53;;;0.30;;
47715;SDS011;33476;50.984;3.538;2023-01-04T01:18:11;1.70;;;0.30;;
47715;SDS011;33476;50.984;3.538;2023-01-04T01:20:41;4.03;;;0.30;;
47715;SDS011;33476;50.984;3.538;2023-01-04T01:23:08;0.65;;;0.20;;
47715;SDS011;33476;50.984;3.538;2023-01-04T01:25:34;4.63;;;0.25;;
47715;SDS011;33476;50.984;3.538;2023-01-04T01:27:59;2.03;;;0.30;;
47715;SDS011;33476;50.984;3.538;2023-01-04T01:30:24;1.75;;;0.20;;
47715;SDS011;33476;50.984;3.538;2023-01-04T01:32:49;3.63;;;0.30;;
47715;SDS011;33476;50.984;3.538;2023-01-04T01:35:15;1.13;;;0.28;;
47715;SDS011;33476;50.984;3.538;2023-01-04T01:37:40;0.30;;;0.10;;
47715;SDS011;33476;50.984;3.538;2023-01-04T01:40:06;0.68;;;0.10;;
47715;SDS011;33476;50.984;3.538;2023-01-04T01:42:31;1.42;;;0.20;;
47715;SDS011;33476;50.984;3.538;2023-01-04T01:45:00;1.05;;;0.20;;
47715;SDS011;33476;50.984;3.538;2023-01-04T01:47:44;1.65;;;0.20;;
47715;SDS011;33476;50.984;3.538;2023-01-04T01:50:17;3.17;;;0.20;;
47715;SDS011;33476;50.984;3.538;2023-01-04T01:52:46;2.88;;;0.20;;
47715;SDS011;33476;50.984;3.538;2023-01-04T01:55:12;1.25;;;0.40;;
47715;SDS011;33476;50.984;3.538;2023-01-04T01:57:39;5.32;;;0.52;;
47715;SDS011;33476;50.984;3.538;2023-01-04T02:00:10;1.00;;;0.30;;
47715;SDS011;33476;50.984;3.538;2023-01-04T02:02:40;1.35;;;0.22;;
47715;SDS011;33476;50.984;3.538;2023-01-04T02:05:10;1.90;;;0.28;;
47715;SDS011;33476;50.984;3.538;2023-01-04T02:07:35;4.10;;;0.40;;
47715;SDS011;33476;50.984;3.538;2023-01-04T02:10:02;4.05;;;0.20;;
47715;SDS011;33476;50.984;3.538;2023-01-04T02:12:28;2.25;;;0.30;;
47715;SDS011;33476;50.984;3.538;2023-01-04T02:14:53;0.95;;;0.25;;
47715;SDS011;33476;50.984;3.538;2023-01-04T02:17:39;1.42;;;0.20;;
47715;SDS011;33476;50.984;3.538;2023-01-04T02:36:31;2.00;;;0.20;;
47715;SDS011;33476;50.984;3.538;2023-01-04T02:39:19;2.60;;;0.17;;
47715;SDS011;33476;50.984;3.538;2023-01-04T02:41:49;3.15;;;0.20;;
47715;SDS011;33476;50.984;3.538;2023-01-04T02:44:30;1.13;;;0.20;;
47715;SDS011;33476;50.984;3.538;2023-01-04T02:50:20;1.45;;;0.20;;
47715;SDS011;33476;50.984;3.538;2023-01-04T02:53:16;2.17;;;0.38;;
47715;SDS011;33476;50.984;3.538;2023-01-04T02:55:54;6.07;;;0.60;;
47715;SDS011;33476;50.984;3.538;2023-01-04T03:07:47;2.13;;;0.30;;
47715;SDS011;33476;50.984;3.538;2023-01-04T03:10:29;1.65;;;0.13;;
47715;SDS011;33476;50.984;3.538;2023-01-04T03:16:04;1.33;;;0.10;;
47715;SDS011;33476;50.984;3.538;2023-01-04T03:18:34;3.17;;;0.20;;
47715;SDS011;33476;50.984;3.538;2023-01-04T03:21:04;2.13;;;0.20;;
47715;SDS011;33476;50.984;3.538;2023-01-04T03:23:34;2.80;;;0.10;;
47715;SDS011;33476;50.984;3.538;2023-01-04T03:26:27;2.88;;;0.30;;
47715;SDS011;33476;50.984;3.538;2023-01-04T03:29:20;2.28;;;0.30;;
47715;SDS011;33476;50.984;3.538;2023-01-04T03:32:11;1.08;;;0.17;;
47715;SDS011;33476;50.984;3.538;2023-01-04T03:34:58;0.85;;;0.17;;
47715;SDS011;33476;50.984;3.538;2023-01-04T03:40:41;1.58;;;0.20;;
47715;SDS011;33476;50.984;3.538;2023-01-04T03:43:43;0.40;;;0.10;;
47715;SDS011;33476;50.984;3.538;2023-01-04T03:46:42;1.50;;;0.25;;
47715;SDS011;33476;50.984;3.538;2023-01-04T03:49:32;2.60;;;0.30;;
47715;SDS011;33476;50.984;3.538;2023-01-04T03:52:07;0.60;;;0.20;;
47715;SDS011;33476;50.984;3.538;2023-01-04T03:54:36;1.35;;;0.28;;
47715;SDS011;33476;50.984;3.538;2023-01-04T03:57:04;1.85;;;0.20;;
47715;SDS011;33476;50.984;3.538;2023-01-04T03:59:33;2.85;;;0.10;;
47715;SDS011;33476;50.984;3.538;2023-01-04T04:02:04;0.70;;;0.28;;
47715;SDS011;33476;50.984;3.538;2023-01-04T04:04:32;0.98;;;0.10;;
47715;SDS011;33476;50.984;3.538;2023-01-04T04:07:16;1.10;;;0.22;;
47715;SDS011;33476;50.984;3.538;2023-01-04T04:09:59;1.83;;;0.22;;
47715;SDS011;33476;50.984;3.538;2023-01-04T04:12:25;1.00;;;0.10;;
47715;SDS011;33476;50.984;3.538;2023-01-04T04:14:50;2.08;;;0.20;;
47715;SDS011;33476;50.984;3.538;2023-01-04T04:17:15;0.95;;;0.20;;
47715;SDS011;33476;50.984;3.538;2023-01-04T04:19:41;1.88;;;0.17;;
47715;SDS011;33476;50.984;3.538;2023-01-04T04:22:06;2.33;;;0.13;;
47715;SDS011;33476;50.984;3.538;2023-01-04T04:24:31;1.58;;;0.30;;
47715;SDS011;33476;50.984;3.538;2023-01-04T04:26:57;1.85;;;0.10;;
47715;SDS011;33476;50.984;3.538;2023-01-04T04:29:22;3.65;;;0.20;;
47715;SDS011;33476;50.984;3.538;2023-01-04T04:31:48;0.43;;;0.10;;
47715;SDS011;33476;50.984;3.538;2023-01-04T04:34:13;1.35;;;0.10;;
47715;SDS011;33476;50.984;3.538;2023-01-04T04:36:39;1.50;;;0.10;;
47715;SDS011;33476;50.984;3.538;2023-01-04T04:39:04;1.50;;;0.10;;
47715;SDS011;33476;50.984;3.538;2023-01-04T04:41:29;2.00;;;0.20;;
47715;SDS011;33476;50.984;3.538;2023-01-04T04:44:12;1.48;;;0.10;;
47715;SDS011;33476;50.984;3.538;2023-01-04T04:46:42;1.27;;;0.10;;
47715;SDS011;33476;50.984;3.538;2023-01-04T04:49:08;1.73;;;0.20;;
47715;SDS011;33476;50.984;3.538;2023-01-04T04:51:34;1.05;;;0.25;;
47715;SDS011;33476;50.984;3.538;2023-01-04T04:54:00;0.28;;;0.10;;
47715;SDS011;33476;50.984;3.538;2023-01-04T04:56:26;1.40;;;0.20;;
47715;SDS011;33476;50.984;3.538;2023-01-04T04:58:52;1.25;;;0.10;;
47715;SDS011;33476;50.984;3.538;2023-01-04T05:01:17;0.55;;;0.20;;
47715;SDS011;33476;50.984;3.538;2023-01-04T05:03:43;0.22;;;0.10;;
47715;SDS011;33476;50.984;3.538;2023-01-04T05:06:08;1.13;;;0.13;;
47715;SDS011;33476;50.984;3.538;2023-01-04T05:08:34;2.03;;;0.20;;
47715;SDS011;33476;50.984;3.538;2023-01-04T05:11:02;1.00;;;0.10;;
47715;SDS011;33476;50.984;3.538;2023-01-04T05:13:29;0.40;;;0.10;;
47715;SDS011;33476;50.984;3.538;2023-01-04T05:15:54;0.38;;;0.10;;
47715;SDS011;33476;50.984;3.538;2023-01-04T05:18:20;2.55;;;0.10;;
47715;SDS011;33476;50.984;3.538;2023-01-04T05:20:46;0.68;;;0.10;;
47715;SDS011;33476;50.984;3.538;2023-01-04T05:23:12;0.82;;;0.10;;
47715;SDS011;33476;50.984;3.538;2023-01-04T05:25:39;0.93;;;0.10;;
47715;SDS011;33476;50.984;3.538;2023-01-04T05:28:05;1.00;;;0.10;;
47715;SDS011;33476;50.984;3.538;2023-01-04T05:30:31;0.55;;;0.10;;
47715;SDS011;33476;50.984;3.538;2023-01-04T05:33:25;1.63;;;0.10;;
47715;SDS011;33476;50.984;3.538;2023-01-04T05:35:52;0.75;;;0.10;;
47715;SDS011;33476;50.984;3.538;2023-01-04T05:38:18;0.50;;;0.05;;
47715;SDS011;33476;50.984;3.538;2023-01-04T05:40:44;0.32;;;0.10;;
47715;SDS011;33476;50.984;3.538;2023-01-04T05:43:10;0.15;;;0.10;;
47715;SDS011;33476;50.984;3.538;2023-01-04T05:45:37;0.32;;;0.10;;
47715;SDS011;33476;50.984;3.538;2023-01-04T05:48:03;0.25;;;0.10;;
47715;SDS011;33476;50.984;3.538;2023-01-04T05:50:29;0.68;;;0.10;;
47715;SDS011;33476;50.984;3.538;2023-01-04T05:52:54;1.77;;;0.10;;
47715;SDS011;33476;50.984;3.538;2023-01-04T05:55:19;0.70;;;0.10;;
47715;SDS011;33476;50.984;3.538;2023-01-04T05:57:45;0.68;;;0.08;;
47715;SDS011;33476;50.984;3.538;2023-01-04T06:00:11;0.35;;;0.10;;
47715;SDS011;33476;50.984;3.538;2023-01-04T06:02:37;0.93;;;0.10;;
47715;SDS011;33476;50.984;3.538;2023-01-04T06:05:02;0.75;;;0.10;;
47715;SDS011;33476;50.984;3.538;2023-01-04T06:07:29;2.10;;;0.10;;
47715;SDS011;33476;50.984;3.538;2023-01-04T06:09:54;1.13;;;0.10;;
47715;SDS011;33476;50.984;3.538;2023-01-04T06:12:20;0.43;;;0.10;;
47715;SDS011;33476;50.984;3.538;2023-01-04T06:14:45;0.25;;;0.10;;
47715;SDS011;33476;50.984;3.538;2023-01-04T06:17:11;1.42;;;0.17;;
47715;SDS011;33476;50.984;3.538;2023-01-04T06:19:36;2.28;;;0.10;;
47715;SDS011;33476;50.984;3.538;2023-01-04T06:22:02;3.08;;;0.10;;
47715;SDS011;33476;50.984;3.538;2023-01-04T06:24:27;1.15;;;0.10;;
47715;SDS011;33476;50.984;3.538;2023-01-04T06:26:52;0.88;;;0.10;;
47715;SDS011;33476;50.984;3.538;2023-01-04T06:29:18;2.10;;;0.10;;
47715;SDS011;33476;50.984;3.538;2023-01-04T06:31:43;1.20;;;0.03;;
47715;SDS011;33476;50.984;3.538;2023-01-04T06:34:12;2.33;;;0.10;;
47715;SDS011;33476;50.984;3.538;2023-01-04T06:36:38;2.22;;;0.20;;
47715;SDS011;33476;50.984;3.538;2023-01-04T06:39:04;1.08;;;0.10;;
47715;SDS011;33476;50.984;3.538;2023-01-04T06:41:30;0.50;;;0.10;;
47715;SDS011;33476;50.984;3.538;2023-01-04T06:43:55;1.85;;;0.10;;
47715;SDS011;33476;50.984;3.538;2023-01-04T06:46:20;2.03;;;0.20;;
47715;SDS011;33476;50.984;3.538;2023-01-04T06:48:46;1.95;;;0.10;;
47715;SDS011;33476;50.984;3.538;2023-01-04T06:51:11;2.25;;;0.20;;
47715;SDS011;33476;50.984;3.538;2023-01-04T06:53:36;2.45;;;0.10;;
47715;SDS011;33476;50.984;3.538;2023-01-04T06:56:02;0.70;;;0.20;;
47715;SDS011;33476;50.984;3.538;2023-01-04T06:58:27;1.15;;;0.08;;
47715;SDS011;33476;50.984;3.538;2023-01-04T07:00:53;0.60;;;0.20;;
47715;SDS011;33476;50.984;3.538;2023-01-04T07:03:19;1.27;;;0.10;;
47715;SDS011;33476;50.984;3.538;2023-01-04T07:05:45;1.05;;;0.10;;
47715;SDS011;33476;50.984;3.538;2023-01-04T07:08:10;0.45;;;0.10;;
47715;SDS011;33476;50.984;3.538;2023-01-04T07:10:37;1.17;;;0.20;;
47715;SDS011;33476;50.984;3.538;2023-01-04T07:13:03;3.67;;;0.10;;
47715;SDS011;33476;50.984;3.538;2023-01-04T07:15:28;3.85;;;0.55;;
47715;SDS011;33476;50.984;3.538;2023-01-04T07:17:54;0.90;;;0.10;;
47715;SDS011;33476;50.984;3.538;2023-01-04T07:20:19;2.53;;;0.22;;
47715;SDS011;33476;50.984;3.538;2023-01-04T07:22:45;4.93;;;0.50;;
47715;SDS011;33476;50.984;3.538;2023-01-04T07:25:10;2.97;;;0.57;;
47715;SDS011;33476;50.984;3.538;2023-01-04T07:27:35;2.80;;;0.30;;
47715;SDS011;33476;50.984;3.538;2023-01-04T07:30:01;2.33;;;0.30;;
47715;SDS011;33476;50.984;3.538;2023-01-04T07:32:26;1.88;;;0.30;;
47715;SDS011;33476;50.984;3.538;2023-01-04T07:34:52;3.92;;;0.25;;
47715;SDS011;33476;50.984;3.538;2023-01-04T07:37:17;8.27;;;0.38;;
47715;SDS011;33476;50.984;3.538;2023-01-04T07:39:43;3.00;;;0.20;;
47715;SDS011;33476;50.984;3.538;2023-01-04T07:42:09;5.55;;;0.60;;
47715;SDS011;33476;50.984;3.538;2023-01-04T07:44:35;2.13;;;0.50;;
47715;SDS011;33476;50.984;3.538;2023-01-04T07:47:01;3.00;;;0.20;;
47715;SDS011;33476;50.984;3.538;2023-01-04T07:49:26;1.73;;;0.43;;
47715;SDS011;33476;50.984;3.538;2023-01-04T07:51:52;1.17;;;0.28;;
47715;SDS011;33476;50.984;3.538;2023-01-04T07:54:17;2.88;;;0.20;;
47715;SDS011;33476;50.984;3.538;2023-01-04T07:56:43;3.67;;;0.30;;
47715;SDS011;33476;50.984;3.538;2023-01-04T07:59:09;0.75;;;0.20;;
47715;SDS011;33476;50.984;3.538;2023-01-04T08:01:36;2.03;;;0.28;;
47715;SDS011;33476;50.984;3.538;2023-01-04T08:04:05;2.15;;;0.43;;
47715;SDS011;33476;50.984;3.538;2023-01-04T08:06:31;5.78;;;0.40;;
47715;SDS011;33476;50.984;3.538;2023-01-04T08:08:58;3.78;;;0.52;;
47715;SDS011;33476;50.984;3.538;2023-01-04T08:11:23;5.88;;;0.32;;
47715;SDS011;33476;50.984;3.538;2023-01-04T08:13:49;5.35;;;0.50;;
47715;SDS011;33476;50.984;3.538;2023-01-04T08:16:25;2.53;;;0.47;;
47715;SDS011;33476;50.984;3.538;2023-01-04T08:18:54;2.30;;;0.47;;
47715;SDS011;33476;50.984;3.538;2023-01-04T08:21:21;3.95;;;0.30;;
47715;SDS011;33476;50.984;3.538;2023-01-04T08:23:47;6.68;;;0.20;;
47715;SDS011;33476;50.984;3.538;2023-01-04T08:26:13;7.20;;;0.60;;
47715;SDS011;33476;50.984;3.538;2023-01-04T08:28:39;3.60;;;0.50;;
47715;SDS011;33476;50.984;3.538;2023-01-04T08:31:06;3.33;;;0.30;;
47715;SDS011;33476;50.984;3.538;2023-01-04T08:33:34;3.35;;;0.40;;
47715;SDS011;33476;50.984;3.538;2023-01-04T08:36:12;5.20;;;0.65;;
47715;SDS011;33476;50.984;3.538;2023-01-04T08:38:45;4.07;;;0.30;;
47715;SDS011;33476;50.984;3.538;2023-01-04T08:41:15;2.08;;;0.40;;
47715;SDS011;33476;50.984;3.538;2023-01-04T08:43:41;7.28;;;0.38;;
47715;SDS011;33476;50.984;3.538;2023-01-04T08:46:07;5.88;;;0.30;;
47715;SDS011;33476;50.984;3.538;2023-01-04T08:48:34;4.65;;;0.38;;
47715;SDS011;33476;50.984;3.538;2023-01-04T08:51:00;1.88;;;0.70;;
47715;SDS011;33476;50.984;3.538;2023-01-04T08:53:27;4.80;;;0.57;;
47715;SDS011;33476;50.984;3.538;2023-01-04T08:55:53;3.45;;;0.25;;
47715;SDS011;33476;50.984;3.538;2023-01-04T08:58:19;1.45;;;0.40;;
47715;SDS011;33476;50.984;3.538;2023-01-04T09:00:45;5.25;;;0.30;;
47715;SDS011;33476;50.984;3.538;2023-01-04T09:03:11;2.80;;;0.43;;
47715;SDS011;33476;50.984;3.538;2023-01-04T09:05:36;2.83;;;0.30;;
47715;SDS011;33476;50.984;3.538;2023-01-04T09:08:02;2.90;;;0.28;;
47715;SDS011;33476;50.984;3.538;2023-01-04T09:10:27;2.88;;;0.40;;
47715;SDS011;33476;50.984;3.538;2023-01-04T09:12:53;2.10;;;0.40;;
47715;SDS011;33476;50.984;3.538;2023-01-04T09:15:18;1.80;;;0.30;;
47715;SDS011;33476;50.984;3.538;2023-01-04T09:17:44;4.28;;;0.40;;
47715;SDS011;33476;50.984;3.538;2023-01-04T09:20:09;2.15;;;0.40;;
47715;SDS011;33476;50.984;3.538;2023-01-04T09:22:35;1.42;;;0.40;;
47715;SDS011;33476;50.984;3.538;2023-01-04T09:25:00;3.25;;;0.40;;
47715;SDS011;33476;50.984;3.538;2023-01-04T09:27:26;1.23;;;0.30;;
47715;SDS011;33476;50.984;3.538;2023-01-04T09:29:51;3.17;;;0.35;;
47715;SDS011;33476;50.984;3.538;2023-01-04T09:32:16;1.90;;;0.30;;
47715;SDS011;33476;50.984;3.538;2023-01-04T09:34:42;2.10;;;0.40;;
47715;SDS011;33476;50.984;3.538;2023-01-04T09:37:07;4.30;;;0.40;;
47715;SDS011;33476;50.984;3.538;2023-01-04T09:39:33;2.83;;;0.30;;
47715;SDS011;33476;50.984;3.538;2023-01-04T09:42:01;3.95;;;0.38;;
47715;SDS011;33476;50.984;3.538;2023-01-04T09:44:32;3.38;;;0.40;;
47715;SDS011;33476;50.984;3.538;2023-01-04T09:47:08;1.92;;;0.30;;
47715;SDS011;33476;50.984;3.538;2023-01-04T09:49:43;2.47;;;0.30;;
47715;SDS011;33476;50.984;3.538;2023-01-04T09:54:45;2.05;;;0.20;;
47715;SDS011;33476;50.984;3.538;2023-01-04T09:59:49;2.33;;;0.22;;
47715;SDS011;33476;50.984;3.538;2023-01-04T10:02:20;3.25;;;0.20;;
47715;SDS011;33476;50.984;3.538;2023-01-04T10:04:53;2.00;;;0.30;;
47715;SDS011;33476;50.984;3.538;2023-01-04T10:07:27;0.70;;;0.10;;
47715;SDS011;33476;50.984;3.538;2023-01-04T10:09:56;0.93;;;0.10;;
47715;SDS011;33476;50.984;3.538;2023-01-04T10:15:29;2.53;;;0.30;;
47715;SDS011;33476;50.984;3.538;2023-01-04T10:24:05;1.13;;;0.17;;
47715;SDS011;33476;50.984;3.538;2023-01-04T10:29:18;2.60;;;0.20;;
47715;SDS011;33476;50.984;3.538;2023-01-04T10:35:16;0.73;;;0.10;;
47715;SDS011;33476;50.984;3.538;2023-01-04T10:37:52;0.80;;;0.20;;
47715;SDS011;33476;50.984;3.538;2023-01-04T10:40:26;2.10;;;0.50;;
47715;SDS011;33476;50.984;3.538;2023-01-04T10:45:42;0.70;;;0.10;;
47715;SDS011;33476;50.984;3.538;2023-01-04T10:48:12;0.45;;;0.20;;
47715;SDS011;33476;50.984;3.538;2023-01-04T10:50:58;0.50;;;0.10;;
47715;SDS011;33476;50.984;3.538;2023-01-04T10:56:23;0.73;;;0.20;;
47715;SDS011;33476;50.984;3.538;2023-01-04T11:01:28;1.58;;;0.10;;
47715;SDS011;33476;50.984;3.538;2023-01-04T11:04:02;0.85;;;0.10;;
47715;SDS011;33476;50.984;3.538;2023-01-04T11:06:41;0.47;;;0.10;;
47715;SDS011;33476;50.984;3.538;2023-01-04T11:09:23;1.92;;;0.10;;
47715;SDS011;33476;50.984;3.538;2023-01-04T11:11:52;0.52;;;0.10;;
47715;SDS011;33476;50.984;3.538;2023-01-04T11:14:20;1.38;;;0.10;;
47715;SDS011;33476;50.984;3.538;2023-01-04T11:16:47;1.48;;;0.20;;
47715;SDS011;33476;50.984;3.538;2023-01-04T11:19:15;0.90;;;0.10;;
47715;SDS011;33476;50.984;3.538;2023-01-04T11:21:48;0.60;;;0.10;;
47715;SDS011;33476;50.984;3.538;2023-01-04T11:24:21;1.10;;;0.10;;
47715;SDS011;33476;50.984;3.538;2023-01-04T11:26:47;0.63;;;0.10;;
47715;SDS011;33476;50.984;3.538;2023-01-04T11:31:55;1.60;;;0.30;;
47715;SDS011;33476;50.984;3.538;2023-01-04T11:34:44;0.93;;;0.20;;
47715;SDS011;33476;50.984;3.538;2023-01-04T11:37:26;1.17;;;0.20;;
47715;SDS011;33476;50.984;3.538;2023-01-04T11:39:56;0.60;;;0.20;;
47715;SDS011;33476;50.984;3.538;2023-01-04T11:42:40;0.47;;;0.10;;
47715;SDS011;33476;50.984;3.538;2023-01-04T11:45:05;0.30;;;0.10;;
47715;SDS011;33476;50.984;3.538;2023-01-04T11:47:46;0.60;;;0.20;;
47715;SDS011;33476;50.984;3.538;2023-01-04T11:52:58;1.25;;;0.20;;
47715;SDS011;33476;50.984;3.538;2023-01-04T11:55:25;0.50;;;0.20;;
47715;SDS011;33476;50.984;3.538;2023-01-04T12:00:55;1.92;;;0.30;;
47715;SDS011;33476;50.984;3.538;2023-01-04T12:05:49;0.20;;;0.10;;
47715;SDS011;33476;50.984;3.538;2023-01-04T12:08:34;0.40;;;0.13;;
47715;SDS011;33476;50.984;3.538;2023-01-04T12:11:01;0.57;;;0.10;;
47715;SDS011;33476;50.984;3.538;2023-01-04T12:13:29;0.93;;;0.20;;
47715;SDS011;33476;50.984;3.538;2023-01-04T12:16:02;1.15;;;0.10;;
47715;SDS011;33476;50.984;3.538;2023-01-04T12:18:37;1.70;;;0.10;;
47715;SDS011;33476;50.984;3.538;2023-01-04T12:21:05;2.72;;;0.10;;
47715;SDS011;33476;50.984;3.538;2023-01-04T12:23:45;2.17;;;0.10;;
47715;SDS011;33476;50.984;3.538;2023-01-04T12:26:12;1.48;;;0.10;;
47715;SDS011;33476;50.984;3.538;2023-01-04T12:28:39;2.25;;;0.20;;
47715;SDS011;33476;50.984;3.538;2023-01-04T12:33:48;2.05;;;0.30;;
47715;SDS011;33476;50.984;3.538;2023-01-04T12:36:14;0.20;;;0.10;;
47715;SDS011;33476;50.984;3.538;2023-01-04T12:41:19;1.42;;;0.20;;
47715;SDS011;33476;50.984;3.538;2023-01-04T12:47:03;3.30;;;0.25;;
47715;SDS011;33476;50.984;3.538;2023-01-04T12:54:59;4.90;;;0.40;;
47715;SDS011;33476;50.984;3.538;2023-01-04T12:57:30;3.13;;;0.50;;
47715;SDS011;33476;50.984;3.538;2023-01-04T13:02:36;3.47;;;0.38;;
47715;SDS011;33476;50.984;3.538;2023-01-04T13:07:53;5.82;;;0.73;;
47715;SDS011;33476;50.984;3.538;2023-01-04T13:18:46;8.32;;;0.85;;
47715;SDS011;33476;50.984;3.538;2023-01-04T13:21:27;6.18;;;0.80;;
47715;SDS011;33476;50.984;3.538;2023-01-04T13:24:00;4.70;;;0.75;;
47715;SDS011;33476;50.984;3.538;2023-01-04T13:26:36;5.32;;;0.75;;
47715;SDS011;33476;50.984;3.538;2023-01-04T13:31:51;5.55;;;0.88;;
47715;SDS011;33476;50.984;3.538;2023-01-04T13:34:18;4.53;;;0.85;;
47715;SDS011;33476;50.984;3.538;2023-01-04T13:37:00;8.68;;;0.82;;
47715;SDS011;33476;50.984;3.538;2023-01-04T13:45:01;7.20;;;0.98;;
47715;SDS011;33476;50.984;3.538;2023-01-04T13:47:28;5.43;;;0.93;;
47715;SDS011;33476;50.984;3.538;2023-01-04T13:49:59;8.82;;;1.17;;
47715;SDS011;33476;50.984;3.538;2023-01-04T13:52:26;9.77;;;0.82;;
47715;SDS011;33476;50.984;3.538;2023-01-04T14:00:23;6.82;;;0.98;;
47715;SDS011;33476;50.984;3.538;2023-01-04T14:03:11;7.85;;;1.23;;
47715;SDS011;33476;50.984;3.538;2023-01-04T14:05:47;4.13;;;0.80;;
47715;SDS011;33476;50.984;3.538;2023-01-04T14:08:18;6.15;;;0.95;;
47715;SDS011;33476;50.984;3.538;2023-01-04T14:10:55;8.20;;;0.85;;
47715;SDS011;33476;50.984;3.538;2023-01-04T14:13:21;5.28;;;0.88;;
47715;SDS011;33476;50.984;3.538;2023-01-04T14:16:01;4.45;;;0.43;;
47715;SDS011;33476;50.984;3.538;2023-01-04T14:18:29;3.38;;;0.40;;
47715;SDS011;33476;50.984;3.538;2023-01-04T14:20:55;5.38;;;0.70;;
47715;SDS011;33476;50.984;3.538;2023-01-04T14:23:25;1.95;;;0.40;;
47715;SDS011;33476;50.984;3.538;2023-01-04T14:25:53;4.22;;;0.40;;
47715;SDS011;33476;50.984;3.538;2023-01-04T14:30:49;3.88;;;0.65;;
47715;SDS011;33476;50.984;3.538;2023-01-04T14:38:34;3.53;;;0.57;;
47715;SDS011;33476;50.984;3.538;2023-01-04T14:41:21;4.95;;;0.40;;
47715;SDS011;33476;50.984;3.538;2023-01-04T14:46:25;7.05;;;0.50;;
47715;SDS011;33476;50.984;3.538;2023-01-04T14:48:55;7.57;;;1.40;;
47715;SDS011;33476;50.984;3.538;2023-01-04T14:51:21;9.32;;;1.30;;
47715;SDS011;33476;50.984;3.538;2023-01-04T14:53:51;7.75;;;1.08;;
47715;SDS011;33476;50.984;3.538;2023-01-04T14:56:17;10.93;;;1.17;;
47715;SDS011;33476;50.984;3.538;2023-01-04T14:58:43;7.60;;;0.90;;
47715;SDS011;33476;50.984;3.538;2023-01-04T15:01:10;9.57;;;1.38;;
47715;SDS011;33476;50.984;3.538;2023-01-04T15:03:36;11.50;;;1.42;;
47715;SDS011;33476;50.984;3.538;2023-01-04T15:06:02;11.77;;;1.77;;
47715;SDS011;33476;50.984;3.538;2023-01-04T15:08:29;16.42;;;2.35;;
47715;SDS011;33476;50.984;3.538;2023-01-04T15:10:55;12.80;;;2.30;;
47715;SDS011;33476;50.984;3.538;2023-01-04T15:13:20;16.50;;;2.10;;
47715;SDS011;33476;50.984;3.538;2023-01-04T15:15:45;15.57;;;2.08;;
47715;SDS011;33476;50.984;3.538;2023-01-04T15:18:11;16.85;;;2.03;;
47715;SDS011;33476;50.984;3.538;2023-01-04T15:20:40;18.08;;;2.85;;
47715;SDS011;33476;50.984;3.538;2023-01-04T15:23:05;25.48;;;2.70;;
47715;SDS011;33476;50.984;3.538;2023-01-04T15:25:31;22.73;;;2.47;;
47715;SDS011;33476;50.984;3.538;2023-01-04T15:27:57;22.67;;;2.63;;
47715;SDS011;33476;50.984;3.538;2023-01-04T15:30:23;20.70;;;2.58;;
47715;SDS011;33476;50.984;3.538;2023-01-04T15:32:48;28.40;;;3.20;;
47715;SDS011;33476;50.984;3.538;2023-01-04T15:35:14;22.50;;;2.58;;
47715;SDS011;33476;50.984;3.538;2023-01-04T15:37:43;34.20;;;3.75;;
47715;SDS011;33476;50.984;3.538;2023-01-04T15:40:10;25.30;;;2.60;;
47715;SDS011;33476;50.984;3.538;2023-01-04T15:42:37;32.97;;;3.45;;
47715;SDS011;33476;50.984;3.538;2023-01-04T15:45:20;25.15;;;3.17;;
47715;SDS011;33476;50.984;3.538;2023-01-04T15:47:47;25.98;;;3.75;;
47715;SDS011;33476;50.984;3.538;2023-01-04T15:50:13;25.27;;;3.20;;
47715;SDS011;33476;50.984;3.538;2023-01-04T15:52:39;25.63;;;2.95;;
47715;SDS011;33476;50.984;3.538;2023-01-04T15:55:04;28.83;;;3.90;;
47715;SDS011;33476;50.984;3.538;2023-01-04T15:57:30;31.17;;;4.13;;
47715;SDS011;33476;50.984;3.538;2023-01-04T15:59:56;29.80;;;3.80;;
47715;SDS011;33476;50.984;3.538;2023-01-04T16:02:21;26.95;;;3.58;;
47715;SDS011;33476;50.984;3.538;2023-01-04T16:04:47;27.20;;;4.15;;
47715;SDS011;33476;50.984;3.538;2023-01-04T16:07:13;27.65;;;3.67;;
47715;SDS011;33476;50.984;3.538;2023-01-04T16:09:39;27.30;;;3.83;;
47715;SDS011;33476;50.984;3.538;2023-01-04T16:12:04;27.58;;;4.63;;
47715;SDS011;33476;50.984;3.538;2023-01-04T16:14:48;26.52;;;3.45;;
47715;SDS011;33476;50.984;3.538;2023-01-04T16:17:14;22.98;;;4.30;;
47715;SDS011;33476;50.984;3.538;2023-01-04T16:19:39;32.80;;;4.20;;
47715;SDS011;33476;50.984;3.538;2023-01-04T16:22:04;28.42;;;4.10;;
47715;SDS011;33476;50.984;3.538;2023-01-04T16:24:30;27.35;;;3.63;;
47715;SDS011;33476;50.984;3.538;2023-01-04T16:26:55;30.45;;;4.10;;
47715;SDS011;33476;50.984;3.538;2023-01-04T16:29:20;27.77;;;3.70;;
47715;SDS011;33476;50.984;3.538;2023-01-04T16:31:46;30.85;;;4.93;;
47715;SDS011;33476;50.984;3.538;2023-01-04T16:34:11;29.27;;;4.03;;
47715;SDS011;33476;50.984;3.538;2023-01-04T16:36:38;21.02;;;3.75;;
47715;SDS011;33476;50.984;3.538;2023-01-04T16:39:03;27.77;;;4.15;;
47715;SDS011;33476;50.984;3.538;2023-01-04T16:41:29;30.75;;;4.38;;
47715;SDS011;33476;50.984;3.538;2023-01-04T16:43:55;30.60;;;4.25;;
47715;SDS011;33476;50.984;3.538;2023-01-04T16:46:25;30.75;;;4.30;;
47715;SDS011;33476;50.984;3.538;2023-01-04T16:49:02;31.02;;;4.32;;
47715;SDS011;33476;50.984;3.538;2023-01-04T16:51:31;37.38;;;4.95;;
47715;SDS011;33476;50.984;3.538;2023-01-04T16:53:58;34.28;;;4.30;;
47715;SDS011;33476;50.984;3.538;2023-01-04T16:56:25;27.25;;;4.30;;
47715;SDS011;33476;50.984;3.538;2023-01-04T16:58:51;30.50;;;4.05;;
47715;SDS011;33476;50.984;3.538;2023-01-04T17:01:21;33.58;;;4.60;;
47715;SDS011;33476;50.984;3.538;2023-01-04T17:03:48;34.10;;;3.97;;